Time;durP1;ratioP1;P1;durP2;ratioP2;P2;SDS_P1;SDS_P2;PMS_P1;PMS_P2;Temp;Humidity;BMP_temperature;BMP_pressure;BME280_temperature;BME280_humidity;BME280_pressure;Samples;Min_cycle;Max_cycle;Signal;HPM_P1;HPM_P2
2023/11/24 00:00:44;;;;;;;;;;;0.80;68.00;;;;;;5074945;28;19925;-72
2023/11/24 00:03:10;;;;;;;;;;;0.90;67.80;;;;;;5057607;28;19923;-75
2023/11/24 00:05:36;;;;;;;;;;;0.80;67.60;;;;;;5057348;28;19989;-71
2023/11/24 00:08:04;;;;;;;;;;;0.80;67.70;;;;;;5075465;28;19927;-74
2023/11/24 00:10:29;;;;;;;;;;;0.80;67.70;;;;;;5089981;28;19931;-72
2023/11/24 00:12:56;;;;;;;;;;;0.80;67.90;;;;;;5057205;28;19916;-72
2023/11/24 00:15:23;;;;;;;;;;;0.80;68.00;;;;;;5057433;28;19932;-71
2023/11/24 00:17:50;;;;;;;;;;;0.70;67.90;;;;;;5090757;28;19920;-75
2023/11/24 00:20:16;;;;;;;;;;;0.70;68.00;;;;;;5056566;28;19962;-71
2023/11/24 00:22:42;;;;;;;;;;;0.70;67.40;;;;;;5057043;28;20340;-72
2023/11/24 00:27:55;;;;;;;;;;;0.70;68.10;;;;;;5075073;28;19923;-75
2023/11/24 00:30:20;;;;;;;;;;;0.70;68.20;;;;;;5074217;28;20031;-71
2023/11/24 00:32:47;;;;;;;;;;;0.70;68.30;;;;;;5040073;28;19916;-71
2023/11/24 00:35:12;;;;;;;;;;;0.70;68.20;;;;;;5040328;28;19924;-72
2023/11/24 00:37:38;;;;;;;;;;;0.60;68.20;;;;;;5040201;28;20055;-72
2023/11/24 00:40:07;;;;;;;;;;;0.60;68.20;;;;;;5056368;28;19951;-72
2023/11/24 00:42:35;;;;;;;;;;;0.60;68.00;;;;;;5056328;28;20392;-71
2023/11/24 00:45:03;;;;;;;;;;;0.60;68.20;;;;;;5055882;28;20297;-75
2023/11/24 00:47:29;;;;;;;;;;;0.60;68.20;;;;;;5056976;28;20285;-75
2023/11/24 00:49:55;;;;;;;;;;;0.70;68.20;;;;;;5056506;28;20328;-75
2023/11/24 00:52:21;;;;;;;;;;;0.70;68.70;;;;;;5073635;28;19928;-72
2023/11/24 00:54:47;;;;;;;;;;;0.70;68.60;;;;;;5056322;28;19928;-75
2023/11/24 00:57:13;;;;;;;;;;;0.70;68.60;;;;;;5056494;28;19916;-75
2023/11/24 00:59:39;;;;;;;;;;;0.70;69.00;;;;;;5056436;28;19925;-72
2023/11/24 01:02:05;;;;;;;;;;;0.60;68.80;;;;;;5073561;28;20039;-71
2023/11/24 01:04:31;;;;;;;;;;;0.60;68.60;;;;;;5074138;28;19924;-71
2023/11/24 01:06:57;;;;;;;;;;;0.70;68.70;;;;;;5074067;28;20343;-71
2023/11/24 01:09:24;;;;;;;;;;;0.60;69.00;;;;;;5056002;28;20028;-75
2023/11/24 01:11:50;;;;;;;;;;;0.60;69.40;;;;;;5073243;28;20389;-71
2023/11/24 01:14:16;;;;;;;;;;;0.60;69.40;;;;;;5073838;28;19916;-75
2023/11/24 01:16:42;;;;;;;;;;;0.60;69.20;;;;;;5073823;28;19921;-75
2023/11/24 01:19:09;;;;;;;;;;;0.60;69.10;;;;;;5055955;28;20397;-75
2023/11/24 01:21:35;;;;;;;;;;;0.50;69.00;;;;;;5073276;28;20007;-71
2023/11/24 01:24:02;;;;;;;;;;;0.50;69.00;;;;;;5055769;28;19921;-72
2023/11/24 01:26:29;;;;;;;;;;;0.50;69.30;;;;;;5056096;28;20403;-75
2023/11/24 01:28:55;;;;;;;;;;;0.40;69.30;;;;;;5055699;28;19956;-75
2023/11/24 01:31:22;;;;;;;;;;;0.40;69.50;;;;;;5072629;28;20015;-75
2023/11/24 01:33:49;;;;;;;;;;;0.40;69.50;;;;;;5056024;28;20351;-75
2023/11/24 01:36:14;;;;;;;;;;;0.40;68.70;;;;;;5074045;28;19917;-75
2023/11/24 01:38:40;;;;;;;;;;;0.40;69.50;;;;;;5055461;28;19932;-72
2023/11/24 01:41:06;;;;;;;;;;;0.40;69.70;;;;;;5054807;28;19931;-71
2023/11/24 01:43:32;;;;;;;;;;;0.40;69.70;;;;;;5073133;28;19923;-75
2023/11/24 01:45:58;;;;;;;;;;;0.40;69.40;;;;;;5055822;28;19927;-71
2023/11/24 01:48:24;;;;;;;;;;;0.30;69.40;;;;;;5055331;28;19960;-75
2023/11/24 01:50:50;;;;;;;;;;;0.20;69.30;;;;;;5054451;28;19924;-71
2023/11/24 01:53:16;;;;;;;;;;;0.10;69.30;;;;;;5055367;28;19916;-75
2023/11/24 01:55:43;;;;;;;;;;;0.10;69.60;;;;;;5072947;28;19920;-75
2023/11/24 01:58:09;;;;;;;;;;;0.10;69.20;;;;;;5073121;28;20278;-75
2023/11/24 02:00:36;;;;;;;;;;;0.00;69.80;;;;;;5054532;28;20228;-71
2023/11/24 02:03:02;;;;;;;;;;;0.10;70.00;;;;;;5055377;28;19916;-72
2023/11/24 02:05:28;;;;;;;;;;;0.10;70.00;;;;;;5055110;28;19928;-72
2023/11/24 02:07:54;;;;;;;;;;;0.10;70.00;;;;;;5055354;28;19924;-75
2023/11/24 02:10:21;;;;;;;;;;;0.10;70.20;;;;;;5054429;28;19928;-75
2023/11/24 02:12:47;;;;;;;;;;;0.10;69.50;;;;;;5055142;28;19920;-71
2023/11/24 02:15:14;;;;;;;;;;;0.20;70.00;;;;;;5055240;28;20300;-72
2023/11/24 02:17:40;;;;;;;;;;;0.20;69.90;;;;;;5055196;28;20057;-71
2023/11/24 02:20:09;;;;;;;;;;;0.20;70.00;;;;;;5072449;28;19924;-75
2023/11/24 02:22:53;;;;;;;;;;;0.20;69.80;;;;;;5072739;28;20422;-71
2023/11/24 02:25:19;;;;;;;;;;;0.30;69.90;;;;;;5054834;28;19925;-75
2023/11/24 02:27:45;;;;;;;;;;;0.30;70.10;;;;;;5072968;28;20360;-75
2023/11/24 02:30:11;;;;;;;;;;;0.40;70.00;;;;;;5053981;28;19981;-72
2023/11/24 02:32:37;;;;;;;;;;;0.40;70.00;;;;;;5038020;28;19917;-71
2023/11/24 02:35:05;;;;;;;;;;;0.50;69.80;;;;;;5054978;28;19928;-75
2023/11/24 02:37:31;;;;;;;;;;;0.60;69.00;;;;;;5071728;28;19921;-76
2023/11/24 02:39:57;;;;;;;;;;;0.60;69.50;;;;;;5072828;28;19983;-72
2023/11/24 02:42:23;;;;;;;;;;;0.70;69.30;;;;;;5053478;28;19928;-72
2023/11/24 02:44:49;;;;;;;;;;;0.70;69.10;;;;;;5072617;28;19925;-71
2023/11/24 02:47:15;;;;;;;;;;;0.80;69.00;;;;;;5054856;28;19916;-75
2023/11/24 02:49:41;;;;;;;;;;;0.80;69.00;;;;;;5072639;28;19929;-75
2023/11/24 02:52:07;;;;;;;;;;;0.80;68.90;;;;;;5072008;28;20007;-71
2023/11/24 02:54:33;;;;;;;;;;;0.80;69.00;;;;;;5033392;28;19932;-74
2023/11/24 02:56:59;;;;;;;;;;;0.80;69.20;;;;;;5052598;28;19916;-75
2023/11/24 02:59:26;;;;;;;;;;;0.80;70.00;;;;;;5052416;28;19925;-75
2023/11/24 03:01:52;;;;;;;;;;;0.80;68.90;;;;;;5052089;28;19921;-72
2023/11/24 03:04:18;;;;;;;;;;;0.80;69.00;;;;;;5052355;28;20356;-72
2023/11/24 03:06:44;;;;;;;;;;;0.80;69.00;;;;;;5034724;28;19917;-73
2023/11/24 03:09:10;;;;;;;;;;;0.80;68.90;;;;;;5053996;28;19924;-71
2023/11/24 03:11:38;;;;;;;;;;;0.80;68.90;;;;;;5055581;28;19921;-71
2023/11/24 03:14:04;;;;;;;;;;;0.90;68.90;;;;;;5071456;28;19916;-71
2023/11/24 03:16:49;;;;;;;;;;;0.80;68.70;;;;;;5038460;28;20266;-72
2023/11/24 03:19:16;;;;;;;;;;;0.90;68.60;;;;;;5038226;28;19924;-75
2023/11/24 03:21:44;;;;;;;;;;;0.90;68.90;;;;;;5021305;28;20381;-71
2023/11/24 03:24:10;;;;;;;;;;;0.80;68.70;;;;;;5071232;28;19952;-71
2023/11/24 03:26:36;;;;;;;;;;;0.90;69.10;;;;;;5056125;28;20429;-75
2023/11/24 03:29:02;;;;;;;;;;;0.90;68.80;;;;;;5055857;28;19917;-75
2023/11/24 03:31:29;;;;;;;;;;;0.90;68.70;;;;;;5020991;28;20392;-72
2023/11/24 03:33:55;;;;;;;;;;;0.90;68.50;;;;;;5055842;28;19916;-73
2023/11/24 03:36:21;;;;;;;;;;;0.90;68.90;;;;;;5038186;28;19928;-72
2023/11/24 03:38:47;;;;;;;;;;;0.90;68.90;;;;;;5037911;28;19936;-75
2023/11/24 03:41:13;;;;;;;;;;;1.00;68.90;;;;;;5020754;28;20019;-71
2023/11/24 03:43:39;;;;;;;;;;;1.00;68.90;;;;;;5070870;28;19917;-75
2023/11/24 03:46:05;;;;;;;;;;;1.00;68.90;;;;;;5056168;28;19921;-75
2023/11/24 03:48:31;;;;;;;;;;;1.00;68.80;;;;;;5037727;28;20461;-71
2023/11/24 03:50:58;;;;;;;;;;;1.00;69.60;;;;;;5053594;28;20444;-71
2023/11/24 03:53:25;;;;;;;;;;;1.00;68.70;;;;;;5070751;28;19921;-72
2023/11/24 03:55:50;;;;;;;;;;;1.10;68.30;;;;;;5068919;28;19932;-75
2023/11/24 03:58:16;;;;;;;;;;;1.10;68.90;;;;;;5075430;28;19938;-71
2023/11/24 04:00:42;;;;;;;;;;;1.10;68.80;;;;;;5074902;28;19925;-76
2023/11/24 04:03:08;;;;;;;;;;;1.10;68.80;;;;;;5057305;28;19923;-75
2023/11/24 04:05:34;;;;;;;;;;;1.10;68.70;;;;;;5075783;28;20011;-75
2023/11/24 04:08:00;;;;;;;;;;;1.10;68.80;;;;;;5040842;28;20437;-75
2023/11/24 04:10:26;;;;;;;;;;;1.10;68.90;;;;;;5056514;28;20432;-76
2023/11/24 04:12:52;;;;;;;;;;;1.00;68.90;;;;;;5057030;28;19917;-73
2023/11/24 04:15:18;;;;;;;;;;;0.90;69.00;;;;;;5057289;28;19924;-75
2023/11/24 04:17:45;;;;;;;;;;;0.90;69.20;;;;;;5075060;28;19938;-75
2023/11/24 04:20:11;;;;;;;;;;;0.80;69.20;;;;;;5072768;28;20440;-75
2023/11/24 04:22:38;;;;;;;;;;;0.80;68.70;;;;;;5057071;28;19920;-74
2023/11/24 04:25:08;;;;;;;;;;;0.80;69.40;;;;;;5075115;28;20019;-72
2023/11/24 04:27:34;;;;;;;;;;;0.80;69.40;;;;;;5057945;28;19991;-76
2023/11/24 04:30:01;;;;;;;;;;;0.70;69.40;;;;;;5056875;28;19938;-75
2023/11/24 04:32:26;;;;;;;;;;;0.70;69.50;;;;;;5074158;28;20356;-72
2023/11/24 04:34:52;;;;;;;;;;;0.70;69.50;;;;;;5074901;28;19924;-71
2023/11/24 04:37:19;;;;;;;;;;;0.70;69.50;;;;;;5056896;28;19920;-76
2023/11/24 04:39:46;;;;;;;;;;;0.60;69.50;;;;;;5056889;28;19928;-71
2023/11/24 04:42:12;;;;;;;;;;;0.60;69.40;;;;;;5039220;28;19924;-71
2023/11/24 04:44:38;;;;;;;;;;;0.60;68.70;;;;;;5074777;28;20015;-75
2023/11/24 04:47:04;;;;;;;;;;;0.60;69.30;;;;;;5074772;28;20359;-72
2023/11/24 04:49:30;;;;;;;;;;;0.60;69.30;;;;;;5074142;28;19924;-71
2023/11/24 04:51:56;;;;;;;;;;;0.50;69.60;;;;;;5055904;28;20277;-75
2023/11/24 04:54:22;;;;;;;;;;;0.50;69.60;;;;;;5055722;28;19936;-76
2023/11/24 04:56:48;;;;;;;;;;;0.50;69.70;;;;;;5040008;28;20384;-71
2023/11/24 04:59:14;;;;;;;;;;;0.50;69.80;;;;;;5074328;28;20391;-72
2023/11/24 05:01:40;;;;;;;;;;;0.50;69.80;;;;;;5055639;28;19921;-72
2023/11/24 05:04:06;;;;;;;;;;;0.40;69.80;;;;;;5056030;28;19923;-75
2023/11/24 05:06:32;;;;;;;;;;;0.40;69.80;;;;;;5056511;28;19920;-72
2023/11/24 05:08:57;;;;;;;;;;;0.40;70.10;;;;;;5056171;28;19927;-75
2023/11/24 05:11:23;;;;;;;;;;;0.40;70.40;;;;;;5073546;28;20321;-73
2023/11/24 05:13:49;;;;;;;;;;;0.40;70.30;;;;;;5056173;28;19969;-75
2023/11/24 05:16:16;;;;;;;;;;;0.40;70.20;;;;;;5074491;28;19971;-71
2023/11/24 05:18:42;;;;;;;;;;;0.40;70.10;;;;;;5073743;28;19921;-71
2023/11/24 05:21:08;;;;;;;;;;;0.40;70.20;;;;;;5055376;28;20011;-73
2023/11/24 05:23:34;;;;;;;;;;;0.40;70.20;;;;;;5055938;28;19917;-72
2023/11/24 05:26:01;;;;;;;;;;;0.40;70.30;;;;;;5039358;28;20011;-75
2023/11/24 05:28:27;;;;;;;;;;;0.40;70.40;;;;;;5073564;28;20129;-76
2023/11/24 05:30:53;;;;;;;;;;;0.30;70.40;;;;;;5054580;28;19999;-72
2023/11/24 05:33:19;;;;;;;;;;;0.40;70.40;;;;;;5055783;28;20024;-75
2023/11/24 05:35:45;;;;;;;;;;;0.40;70.50;;;;;;5039137;28;19926;-72
2023/11/24 05:38:11;;;;;;;;;;;0.30;70.40;;;;;;5056216;28;19947;-72
2023/11/24 05:40:37;;;;;;;;;;;0.30;70.30;;;;;;5054991;28;19931;-76
2023/11/24 05:43:02;;;;;;;;;;;0.30;71.20;;;;;;5073374;28;20006;-75
2023/11/24 05:45:30;;;;;;;;;;;0.30;70.20;;;;;;5055295;28;20007;-75
2023/11/24 05:47:56;;;;;;;;;;;0.30;70.00;;;;;;5055832;28;19956;-75
2023/11/24 05:50:22;;;;;;;;;;;0.20;70.20;;;;;;5054793;28;19935;-75
2023/11/24 05:52:59;;;;;;;;;;;0.10;70.30;;;;;;5055474;28;20019;-72
2023/11/24 05:55:25;;;;;;;;;;;0.10;70.20;;;;;;5073004;28;20007;-75
2023/11/24 05:57:51;;;;;;;;;;;0.10;70.30;;;;;;5038512;28;20019;-71
2023/11/24 06:00:18;;;;;;;;;;;0.00;70.00;;;;;;5054680;28;19974;-76
2023/11/24 06:02:45;;;;;;;;;;;-0.10;69.20;;;;;;5071809;28;19920;-72
2023/11/24 06:05:12;;;;;;;;;;;-0.10;69.60;;;;;;5073098;28;19935;-72
2023/11/24 06:07:40;;;;;;;;;;;-0.20;69.00;;;;;;5073277;28;19943;-71
2023/11/24 06:10:07;;;;;;;;;;;-0.30;69.90;;;;;;5037834;28;19924;-72
2023/11/24 06:12:33;;;;;;;;;;;-0.30;70.10;;;;;;5072719;28;20306;-71
2023/11/24 06:14:59;;;;;;;;;;;-0.40;70.30;;;;;;5055495;28;19928;-72
2023/11/24 06:17:25;;;;;;;;;;;-0.40;70.70;;;;;;5038452;28;19938;-71
2023/11/24 06:19:51;;;;;;;;;;;-0.30;70.70;;;;;;5072876;28;20018;-71
2023/11/24 06:22:17;;;;;;;;;;;-0.30;70.90;;;;;;5037689;28;20350;-72
2023/11/24 06:24:42;;;;;;;;;;;-0.20;70.70;;;;;;5055224;28;19932;-72
2023/11/24 06:27:09;;;;;;;;;;;-0.20;70.50;;;;;;5055017;28;19925;-74
2023/11/24 06:29:34;;;;;;;;;;;-0.20;70.50;;;;;;5072659;28;20019;-71
2023/11/24 06:32:00;;;;;;;;;;;-0.30;71.30;;;;;;5054123;28;19928;-75
2023/11/24 06:34:26;;;;;;;;;;;-0.20;71.40;;;;;;5072878;28;20343;-72
2023/11/24 06:36:52;;;;;;;;;;;-0.20;71.20;;;;;;5072783;28;19962;-73
2023/11/24 06:39:19;;;;;;;;;;;-0.10;71.00;;;;;;5072678;28;20375;-76
2023/11/24 06:42:05;;;;;;;;;;;0.00;71.00;;;;;;5037506;28;19928;-72
2023/11/24 06:44:31;;;;;;;;;;;0.00;71.20;;;;;;5075399;28;19927;-72
2023/11/24 06:46:57;;;;;;;;;;;0.10;71.40;;;;;;5076993;28;20007;-72
2023/11/24 06:49:23;;;;;;;;;;;0.20;71.60;;;;;;5058635;28;19924;-72
2023/11/24 06:51:50;;;;;;;;;;;0.20;71.40;;;;;;5058309;28;19969;-72
2023/11/24 06:54:16;;;;;;;;;;;0.20;71.70;;;;;;5076185;28;19923;-72
2023/11/24 06:56:42;;;;;;;;;;;0.30;71.60;;;;;;5077011;28;19917;-74
2023/11/24 06:59:08;;;;;;;;;;;0.50;71.10;;;;;;5041780;28;20387;-72
2023/11/24 07:01:35;;;;;;;;;;;0.70;71.20;;;;;;5076187;28;19920;-75
2023/11/24 07:04:02;;;;;;;;;;;0.70;71.20;;;;;;5076427;28;20300;-73
2023/11/24 07:06:28;;;;;;;;;;;0.90;70.80;;;;;;5058815;28;19960;-71
2023/11/24 07:08:54;;;;;;;;;;;1.00;70.70;;;;;;5058419;28;19963;-72
2023/11/24 07:11:20;;;;;;;;;;;1.20;70.50;;;;;;5076142;28;19924;-76
2023/11/24 07:13:46;;;;;;;;;;;1.20;70.40;;;;;;5058193;28;19952;-72
2023/11/24 07:16:13;;;;;;;;;;;1.30;70.90;;;;;;5076873;28;19917;-72
2023/11/24 07:18:39;;;;;;;;;;;1.40;70.50;;;;;;5076118;28;19931;-75
2023/11/24 07:21:05;;;;;;;;;;;1.50;69.90;;;;;;5075862;28;19928;-72
2023/11/24 07:23:32;;;;;;;;;;;1.60;69.70;;;;;;5058186;28;19986;-76
2023/11/24 07:25:58;;;;;;;;;;;1.70;70.10;;;;;;5076593;28;19959;-76
2023/11/24 07:28:24;;;;;;;;;;;1.80;69.90;;;;;;5091794;28;19925;-72
2023/11/24 07:30:50;;;;;;;;;;;1.90;69.90;;;;;;5075091;28;19971;-75
2023/11/24 07:33:16;;;;;;;;;;;1.90;69.80;;;;;;5075940;28;19916;-76
2023/11/24 07:35:43;;;;;;;;;;;2.00;70.60;;;;;;5041446;28;19927;-72
2023/11/24 07:38:09;;;;;;;;;;;2.10;70.60;;;;;;5075950;28;19924;-75
2023/11/24 07:40:35;;;;;;;;;;;2.20;70.50;;;;;;5075173;28;19924;-72
2023/11/24 07:43:01;;;;;;;;;;;2.30;70.40;;;;;;5057843;28;20316;-76
2023/11/24 07:45:27;;;;;;;;;;;2.30;70.30;;;;;;5041185;28;19927;-76
2023/11/24 07:47:53;;;;;;;;;;;2.40;70.30;;;;;;5057871;28;19943;-72
2023/11/24 07:50:19;;;;;;;;;;;2.50;70.10;;;;;;5074920;28;19920;-72
2023/11/24 07:52:46;;;;;;;;;;;2.60;70.10;;;;;;5075524;28;19924;-76
2023/11/24 07:55:13;;;;;;;;;;;2.70;69.90;;;;;;5074904;28;20007;-72
2023/11/24 07:57:57;;;;;;;;;;;2.70;69.80;;;;;;5075516;28;19969;-75
2023/11/24 08:00:24;;;;;;;;;;;2.90;69.70;;;;;;5057167;28;20304;-73
2023/11/24 08:02:50;;;;;;;;;;;3.00;69.60;;;;;;5057293;28;19935;-72
2023/11/24 08:05:16;;;;;;;;;;;3.10;69.50;;;;;;5057132;28;20337;-72
2023/11/24 08:07:44;;;;;;;;;;;3.20;69.20;;;;;;5057438;28;20015;-76
2023/11/24 08:10:10;;;;;;;;;;;3.30;68.30;;;;;;5056447;28;19920;-76
2023/11/24 08:12:36;;;;;;;;;;;3.50;68.70;;;;;;5057220;28;19959;-72
2023/11/24 08:15:02;;;;;;;;;;;3.60;68.50;;;;;;5075392;28;19931;-72
2023/11/24 08:17:28;;;;;;;;;;;3.60;68.60;;;;;;5057396;28;19962;-75
2023/11/24 08:19:54;;;;;;;;;;;3.70;68.50;;;;;;5057075;28;19924;-72
2023/11/24 08:22:20;;;;;;;;;;;3.90;68.10;;;;;;5074480;28;19920;-72
2023/11/24 08:24:46;;;;;;;;;;;4.00;67.90;;;;;;5075199;28;20023;-72
2023/11/24 08:27:12;;;;;;;;;;;4.10;67.80;;;;;;5074998;28;20373;-72
2023/11/24 08:29:38;;;;;;;;;;;4.30;67.50;;;;;;5074901;28;19931;-76
2023/11/24 08:32:04;;;;;;;;;;;4.50;66.70;;;;;;5089806;28;19921;-72
2023/11/24 08:34:30;;;;;;;;;;;4.60;67.00;;;;;;5090249;28;19978;-72
2023/11/24 08:36:56;;;;;;;;;;;4.80;67.00;;;;;;5057118;28;20377;-72
2023/11/24 08:39:22;;;;;;;;;;;5.00;66.70;;;;;;5074666;28;20019;-72
2023/11/24 08:41:49;;;;;;;;;;;5.20;66.30;;;;;;5056037;28;19966;-72
2023/11/24 08:44:14;;;;;;;;;;;5.40;65.40;;;;;;5056849;28;20015;-75
2023/11/24 08:46:42;;;;;;;;;;;5.60;65.20;;;;;;5074655;28;19920;-72
2023/11/24 08:49:10;;;;;;;;;;;5.70;64.40;;;;;;5056335;28;20411;-75
2023/11/24 08:51:37;;;;;;;;;;;6.00;64.50;;;;;;5056410;28;20332;-75
2023/11/24 08:54:03;;;;;;;;;;;6.00;64.00;;;;;;5074350;28;19976;-72
2023/11/24 08:56:30;;;;;;;;;;;6.20;64.20;;;;;;5074662;28;20356;-72
2023/11/24 08:58:56;;;;;;;;;;;6.90;62.70;;;;;;5074107;28;19917;-74
2023/11/24 09:01:23;;;;;;;;;;;7.80;59.90;;;;;;5055971;28;19935;-72
2023/11/24 09:03:49;;;;;;;;;;;8.50;58.50;;;;;;5056601;28;19917;-74
2023/11/24 09:06:15;;;;;;;;;;;8.40;58.50;;;;;;5074041;28;20003;-75
2023/11/24 09:08:41;;;;;;;;;;;8.10;58.20;;;;;;5056274;28;19933;-75
2023/11/24 09:11:07;;;;;;;;;;;8.00;60.20;;;;;;5055708;28;20388;-71
2023/11/24 09:13:34;;;;;;;;;;;8.00;60.80;;;;;;5055751;28;19917;-75
2023/11/24 09:16:02;;;;;;;;;;;8.20;60.20;;;;;;5056540;28;19926;-72
2023/11/24 09:18:28;;;;;;;;;;;8.00;60.50;;;;;;5056165;28;20365;-74
2023/11/24 09:20:57;;;;;;;;;;;7.80;61.60;;;;;;5073175;28;20007;-72
2023/11/24 09:23:23;;;;;;;;;;;8.20;61.70;;;;;;5056009;28;19916;-75
2023/11/24 09:25:49;;;;;;;;;;;8.50;61.10;;;;;;5073896;28;20050;-75
2023/11/24 09:28:16;;;;;;;;;;;8.40;61.30;;;;;;5039402;28;19931;-75
2023/11/24 09:30:42;;;;;;;;;;;8.30;61.20;;;;;;5038445;28;19924;-75
2023/11/24 09:33:09;;;;;;;;;;;8.20;61.80;;;;;;5073486;28;19917;-72
2023/11/24 09:35:35;;;;;;;;;;;8.10;61.70;;;;;;5056052;28;19943;-72
2023/11/24 09:38:01;;;;;;;;;;;8.10;62.80;;;;;;5073736;28;19931;-75
2023/11/24 09:40:27;;;;;;;;;;;8.50;62.10;;;;;;5073037;28;20304;-75
2023/11/24 09:42:53;;;;;;;;;;;8.70;60.90;;;;;;5055175;28;19992;-75
2023/11/24 09:45:21;;;;;;;;;;;9.10;60.60;;;;;;5073788;28;20011;-75
2023/11/24 09:48:06;;;;;;;;;;;9.20;59.60;;;;;;5070226;28;20711;-75
2023/11/24 09:50:32;;;;;;;;;;;9.40;59.60;;;;;;5074564;28;19924;-75
2023/11/24 09:52:58;;;;;;;;;;;10.10;57.80;;;;;;5074375;28;19969;-75
2023/11/24 09:55:25;;;;;;;;;;;11.20;53.80;;;;;;5063706;28;19935;-73
2023/11/24 09:57:51;;;;;;;;;;;11.30;54.00;;;;;;5035612;28;20334;-75
2023/11/24 10:00:21;;;;;;;;;;;11.30;54.90;;;;;;5062272;28;20189;-72
2023/11/24 10:02:47;;;;;;;;;;;11.40;54.40;;;;;;5042746;28;20076;-75
2023/11/24 10:05:32;;;;;;;;;;;12.10;52.90;;;;;;5054426;28;19931;-74
2023/11/24 10:08:00;;;;;;;;;;;12.60;51.50;;;;;;5064650;28;19916;-72
2023/11/24 10:10:27;;;;;;;;;;;12.90;50.70;;;;;;5050742;28;20312;-75
2023/11/24 10:12:56;;;;;;;;;;;12.90;51.10;;;;;;5054733;28;19921;-71
2023/11/24 10:15:23;;;;;;;;;;;12.90;49.40;;;;;;5054688;28;19925;-75
2023/11/24 10:17:49;;;;;;;;;;;13.10;50.40;;;;;;5069844;28;20031;-72
2023/11/24 10:20:18;;;;;;;;;;;13.30;50.50;;;;;;5063911;28;20374;-71
2023/11/24 10:22:46;;;;;;;;;;;13.50;49.50;;;;;;5045685;28;19917;-74
2023/11/24 10:25:12;;;;;;;;;;;13.80;48.80;;;;;;5052962;28;19948;-75
2023/11/24 10:30:23;;;;;;;;;;;14.40;47.10;;;;;;5037368;28;20407;-71
2023/11/24 10:32:49;;;;;;;;;;;14.30;47.40;;;;;;5035477;28;19917;-72
2023/11/24 10:35:15;;;;;;;;;;;14.40;47.00;;;;;;5034920;28;19924;-72
2023/11/24 10:37:41;;;;;;;;;;;14.40;46.90;;;;;;5053076;28;19928;-74
2023/11/24 10:42:54;;;;;;;;;;;14.30;47.10;;;;;;5057402;28;19923;-73
2023/11/24 10:45:21;;;;;;;;;;;14.60;45.50;;;;;;5054974;28;19975;-72
2023/11/24 10:48:24;;;;;;;;;;;14.90;45.10;;;;;;5054756;28;19939;-71
2023/11/24 10:51:04;;;;;;;;;;;16.20;42.80;;;;;;5071442;28;19924;-71
2023/11/24 10:53:36;;;;;;;;;;;17.40;39.20;;;;;;5037942;28;20007;-72
2023/11/24 10:56:04;;;;;;;;;;;17.30;39.20;;;;;;5067446;28;19921;-72
2023/11/24 10:58:30;;;;;;;;;;;17.50;38.90;;;;;;5054865;28;19921;-71
2023/11/24 11:00:57;;;;;;;;;;;17.80;38.80;;;;;;5054158;28;19931;-71
2023/11/24 11:03:23;;;;;;;;;;;18.20;38.20;;;;;;5054661;28;19916;-72
2023/11/24 11:06:29;;;;;;;;;;;17.90;38.60;;;;;;5071090;28;19920;-74
2023/11/24 11:09:08;;;;;;;;;;;17.80;38.60;;;;;;5054476;28;19920;-72
2023/11/24 11:14:56;;;;;;;;;;;18.70;37.40;;;;;;5073297;28;19923;-74
2023/11/24 11:17:25;;;;;;;;;;;18.80;35.10;;;;;;5090139;28;19928;-72
2023/11/24 11:23:15;;;;;;;;;;;18.10;35.50;;;;;;5078818;28;19924;-75
2023/11/24 11:25:43;;;;;;;;;;;17.60;36.10;;;;;;5088899;28;19932;-75
2023/11/24 11:28:47;;;;;;;;;;;17.70;36.80;;;;;;5067573;28;19916;-72
2023/11/24 11:31:37;;;;;;;;;;;17.80;33.90;;;;;;5075576;28;19984;-75
2023/11/24 11:34:42;;;;;;;;;;;19.10;33.60;;;;;;5075789;28;20364;-75
2023/11/24 11:37:12;;;;;;;;;;;20.40;30.80;;;;;;5086786;28;19921;-75
2023/11/24 11:39:47;;;;;;;;;;;19.50;32.10;;;;;;5079809;28;19924;-75
2023/11/24 11:42:14;;;;;;;;;;;18.90;33.30;;;;;;5078588;28;20280;-72
2023/11/24 11:44:46;;;;;;;;;;;18.60;33.00;;;;;;5042096;28;20347;-75
2023/11/24 11:47:20;;;;;;;;;;;18.90;33.20;;;;;;5059151;28;19920;-72
2023/11/24 11:49:51;;;;;;;;;;;19.50;31.30;;;;;;5058566;28;19952;-72
2023/11/24 11:52:31;;;;;;;;;;;19.10;32.10;;;;;;5057802;28;19925;-75
2023/11/24 11:55:00;;;;;;;;;;;18.80;31.90;;;;;;5064389;28;20376;-72
2023/11/24 11:57:27;;;;;;;;;;;18.60;32.30;;;;;;5093702;28;19961;-72
2023/11/24 11:59:53;;;;;;;;;;;18.80;32.10;;;;;;5075845;28;19924;-75
2023/11/24 12:02:21;;;;;;;;;;;18.40;33.60;;;;;;5056837;28;19955;-72
2023/11/24 12:04:47;;;;;;;;;;;18.00;33.20;;;;;;5066582;28;19969;-71
2023/11/24 12:07:15;;;;;;;;;;;17.50;32.80;;;;;;5060659;28;19916;-75
2023/11/24 12:09:41;;;;;;;;;;;17.20;34.70;;;;;;5077392;28;19935;-75
2023/11/24 12:12:09;;;;;;;;;;;17.10;35.00;;;;;;5094988;28;19920;-75
2023/11/24 12:14:40;;;;;;;;;;;17.00;35.50;;;;;;5076488;28;20309;-72
2023/11/24 12:17:06;;;;;;;;;;;17.00;35.40;;;;;;5078392;28;20011;-75
2023/11/24 12:19:33;;;;;;;;;;;16.90;34.10;;;;;;5060307;28;19924;-72
2023/11/24 12:22:18;;;;;;;;;;;16.60;34.70;;;;;;5067221;28;19929;-71
2023/11/24 12:24:44;;;;;;;;;;;16.60;35.90;;;;;;5074323;28;19931;-76
2023/11/24 12:27:11;;;;;;;;;;;16.60;35.90;;;;;;5077400;28;19970;-75
2023/11/24 12:29:40;;;;;;;;;;;16.60;35.90;;;;;;5060368;28;19928;-72
2023/11/24 12:32:07;;;;;;;;;;;16.60;35.70;;;;;;5063907;28;19920;-75
2023/11/24 12:34:36;;;;;;;;;;;16.90;35.70;;;;;;5076997;28;19935;-74
2023/11/24 12:37:03;;;;;;;;;;;17.30;35.90;;;;;;5093519;28;19959;-75
2023/11/24 12:39:34;;;;;;;;;;;17.30;34.80;;;;;;5060098;28;20323;-72
2023/11/24 12:42:00;;;;;;;;;;;17.30;35.00;;;;;;5092523;28;19928;-72
2023/11/24 12:44:28;;;;;;;;;;;17.20;35.30;;;;;;5076778;28;19925;-76
2023/11/24 12:47:13;;;;;;;;;;;17.30;35.60;;;;;;5060007;28;20014;-72
2023/11/24 12:52:45;;;;;;;;;;;18.00;33.60;;;;;;5059598;28;19926;-74
2023/11/24 12:55:11;;;;;;;;;;;17.70;33.90;;;;;;5064424;28;19971;-76
2023/11/24 12:57:38;;;;;;;;;;;17.60;33.60;;;;;;5076737;28;19916;-71
2023/11/24 13:00:09;;;;;;;;;;;17.60;34.00;;;;;;5059489;28;19932;-75
2023/11/24 13:02:36;;;;;;;;;;;17.40;33.60;;;;;;5076938;28;20229;-71
2023/11/24 13:05:05;;;;;;;;;;;17.30;33.80;;;;;;5094884;28;19970;-71
2023/11/24 13:07:33;;;;;;;;;;;17.00;33.50;;;;;;5073767;28;20470;-71
2023/11/24 13:09:58;;;;;;;;;;;17.20;33.40;;;;;;5056471;28;20388;-75
2023/11/24 13:12:26;;;;;;;;;;;17.40;32.50;;;;;;5079358;28;19931;-71
2023/11/24 13:14:52;;;;;;;;;;;17.50;32.60;;;;;;5076493;28;19924;-75
2023/11/24 13:17:20;;;;;;;;;;;17.20;32.80;;;;;;5094531;28;19920;-71
2023/11/24 13:19:48;;;;;;;;;;;16.80;33.90;;;;;;5094458;28;19920;-75
2023/11/24 13:22:14;;;;;;;;;;;16.20;35.10;;;;;;5093385;28;19924;-71
2023/11/24 13:24:40;;;;;;;;;;;16.20;35.40;;;;;;5039209;28;19927;-74
2023/11/24 13:27:06;;;;;;;;;;;16.40;35.80;;;;;;5056016;28;20365;-75
2023/11/24 13:29:32;;;;;;;;;;;16.80;34.80;;;;;;5080961;28;19978;-73
2023/11/24 13:31:58;;;;;;;;;;;17.50;33.20;;;;;;5093454;28;19928;-72
2023/11/24 13:34:24;;;;;;;;;;;18.50;31.20;;;;;;5093734;28;19958;-75
2023/11/24 13:36:52;;;;;;;;;;;18.60;30.20;;;;;;5093841;28;20308;-75
2023/11/24 13:39:24;;;;;;;;;;;17.80;31.30;;;;;;5074673;28;19922;-74
2023/11/24 13:41:51;;;;;;;;;;;17.70;31.20;;;;;;5056028;28;20286;-75
2023/11/24 13:44:18;;;;;;;;;;;17.50;31.10;;;;;;5055662;28;19923;-71
2023/11/24 13:46:44;;;;;;;;;;;16.90;32.10;;;;;;5064263;28;19928;-71
2023/11/24 13:49:29;;;;;;;;;;;16.60;33.30;;;;;;5075511;28;20006;-75
2023/11/24 13:51:54;;;;;;;;;;;15.90;34.60;;;;;;5093459;28;20395;-71
2023/11/24 13:54:23;;;;;;;;;;;15.50;34.90;;;;;;5093064;28;19916;-75
2023/11/24 13:56:51;;;;;;;;;;;15.50;35.50;;;;;;5088685;28;19920;-71
2023/11/24 13:59:17;;;;;;;;;;;15.00;36.10;;;;;;5073227;28;20038;-75
2023/11/24 14:01:44;;;;;;;;;;;14.50;37.20;;;;;;5054612;28;19924;-75
2023/11/24 14:04:14;;;;;;;;;;;13.90;38.00;;;;;;5085520;28;19938;-71
2023/11/24 14:06:59;;;;;;;;;;;13.50;38.90;;;;;;5106534;28;19965;-74
2023/11/24 14:09:31;;;;;;;;;;;13.10;40.10;;;;;;5095700;28;20304;-75
2023/11/24 14:12:03;;;;;;;;;;;12.80;41.10;;;;;;5078937;28;20398;-70
2023/11/24 14:14:29;;;;;;;;;;;12.60;41.40;;;;;;5091642;28;19935;-71
2023/11/24 14:19:41;;;;;;;;;;;12.20;43.30;;;;;;5073143;28;20094;-70
2023/11/24 14:22:07;;;;;;;;;;;12.00;44.10;;;;;;5074411;28;19924;-74
2023/11/24 14:24:33;;;;;;;;;;;11.80;44.30;;;;;;5075130;28;19920;-74
2023/11/24 14:26:59;;;;;;;;;;;11.70;45.40;;;;;;5093110;28;19920;-71
2023/11/24 14:29:27;;;;;;;;;;;11.60;46.20;;;;;;5086049;28;20019;-71
2023/11/24 14:31:53;;;;;;;;;;;11.50;46.20;;;;;;5081248;28;19967;-75
2023/11/24 14:34:19;;;;;;;;;;;11.40;47.20;;;;;;5072933;28;19917;-75
2023/11/24 14:36:45;;;;;;;;;;;11.50;47.00;;;;;;5073844;28;19966;-70
2023/11/24 14:39:19;;;;;;;;;;;11.50;47.10;;;;;;5072569;28;19923;-71
2023/11/24 14:42:04;;;;;;;;;;;11.40;47.20;;;;;;5072107;28;19974;-72
2023/11/24 14:44:30;;;;;;;;;;;11.20;48.60;;;;;;5072913;28;20250;-75
2023/11/24 14:46:56;;;;;;;;;;;11.00;49.10;;;;;;5072967;28;19927;-71
2023/11/24 14:49:22;;;;;;;;;;;10.90;49.80;;;;;;5073175;28;19934;-71